• Join FlightAware (Why Join?)
  • Login
  • US Flag 
01:28AM EDT


 

Airport Tracker/Info


-or-


 

Live Flight TrackerFlight Track Log ✈ N983CA ✈ 20-Apr-2013 ✈ KSFO - KONT

Flight Track Log - Related Links

Times and Time Zones

All times are in EDT time to prevent confusion due to time zone crossing. See the N983CA flight status page for this flight to view local times or setup timezone preferences in your user account.

Time Position Orientation Groundspeed Altitude Reporting Facility
EDT Latitude Longitude Course Direction KTS MPH feet Rate Location/Type
01:52AM 37.6667 -122.3667 133° Southeast 174 200 1,700  Level Northern Cal TRACON
01:53AM 37.6956 -122.3625 North 201 231 3,100 2,280 Climbing Oakland Center
01:54AM 37.7153 -122.4294 290° West 262 302 5,500 2,700 Climbing Oakland Center
01:55AM 37.6408 -122.4597 198° South 283 326 8,600 2,700 Climbing Oakland Center
01:56AM 37.2615 -122.1005 130° Southeast  Level FlightAware Approximate
01:56AM 37.5619 -122.4442 171° South 311 358 11,000  Level Oakland Center
01:57AM 37.1680 -121.9795 133° Southeast  Level FlightAware Approximate
01:57AM 37.5075 -122.3539 127° Southeast 326 375 13,200  Level Oakland Center
01:58AM 37.4481 -122.2592 128° Southeast 343 395 15,300 1,980 Climbing Oakland Center
01:59AM 37.3867 -122.1614 128° Southeast 356 410 17,200 1,680 Climbing Oakland Center
02:00AM 37.3222 -122.0622 129° Southeast 366 421 18,800 1,560 Climbing Oakland Center
02:01AM 37.2578 -121.9575 128° Southeast 378 435 20,400 1,500 Climbing Oakland Center
02:02AM 37.1903 -121.8517 129° Southeast 388 447 21,900 1,380 Climbing Oakland Center
02:03AM 37.1242 -121.7481 129° Southeast 398 458 23,300 1,320 Climbing Oakland Center
02:04AM 37.0497 -121.6344 129° Southeast 403 464 24,600 1,200 Climbing Oakland Center
02:05AM 36.9778 -121.5217 129° Southeast 412 474 25,800 1,140 Climbing Oakland Center
02:06AM 36.9058 -121.4075 128° Southeast 419 482 27,000 600 Climbing Oakland Center
02:07AM 36.8306 -121.2936 130° Southeast 425 489 27,000  Level Oakland Center
02:08AM 36.7483 -121.1683 129° Southeast 424 488 27,000  Level Oakland Center
02:09AM 36.6739 -121.0533 129° Southeast 424 488 27,000  Level Oakland Center
02:10AM 36.6006 -120.9411 129° Southeast 418 481 27,000  Level Oakland Center
02:11AM 36.5267 -120.8278 129° Southeast 420 483 27,000  Level Oakland Center
02:12AM 36.4550 -120.7156 128° Southeast 415 478 27,000  Level Oakland Center
02:13AM 36.3806 -120.6078 131° Southeast 411 473 27,000  Level Oakland Center
02:14AM 36.3083 -120.4986 129° Southeast 408 470 27,000  Level Oakland Center
02:15AM 36.2347 -120.3869 129° Southeast 415 478 27,000  Level Oakland Center
02:16AM 36.1611 -120.2778 130° Southeast 414 476 27,000  Level Oakland Center
02:17AM 36.0894 -120.1708 130° Southeast 405 466 27,000  Level Oakland Center
02:18AM 36.0172 -120.0631 130° Southeast 406 467 27,000  Level Oakland Center
02:19AM 35.9461 -119.9597 130° Southeast 397 457 27,000  Level Oakland Center
02:20AM 35.8725 -119.8511 130° Southeast 405 466 27,000  Level Oakland Center
02:21AM 35.8014 -119.7450 130° Southeast 403 464 27,000  Level Oakland Center
02:22AM 35.7275 -119.6364 130° Southeast 408 470 27,000  Level Oakland Center
02:23AM 35.6542 -119.5292 130° Southeast 408 470 27,000  Level Oakland Center
02:24AM 35.5806 -119.4236 131° Southeast 406 467 27,000  Level Oakland Center
02:25AM 35.5225 -119.3367 129° Southeast 409 471 27,000  Level Los Angeles Center
02:26AM 35.4500 -119.2311 130° Southeast 407 468 27,000  Level Los Angeles Center
02:27AM 35.3772 -119.1250 130° Southeast 406 467 27,000  Level Los Angeles Center
02:28AM 35.3028 -119.0189 131° Southeast 408 470 27,000  Level Los Angeles Center
02:29AM 35.2297 -118.9131 130° Southeast 408 470 27,000 -60 Level Los Angeles Center
02:30AM 35.1411 -118.7867 131° Southeast 408 470 26,900  Descending Los Angeles Center
02:31AM 35.0675 -118.6817 131° Southeast 408 470 27,000  Climbing Los Angeles Center
02:32AM 34.9931 -118.5778 131° Southeast 406 467 26,900 -360 Descending Los Angeles Center
02:33AM 34.9189 -118.4717 130° Southeast 410 472 26,300 -720 Descending Los Angeles Center
02:34AM 34.8561 -118.3831 131° Southeast 417 480 25,500 -900 Descending Los Angeles Center
02:35AM 34.7828 -118.2800 131° Southeast 408 470 24,500 -1,140 Descending Los Angeles Center
02:36AM 34.6964 -118.1589 131° Southeast 398 458 23,300 -1,140 Descending Los Angeles Center
02:37AM 34.6264 -118.0578 130° Southeast 394 453 22,300 -1,020 Descending Los Angeles Center
02:38AM 34.5761 -117.9467 119° Southeast 381 438 21,300 -1,320 Descending Los Angeles Center
02:39AM 34.5267 -117.8378 119° Southeast 375 432 19,700 -1,560 Descending Los Angeles Center
02:40AM 34.4769 -117.7306 119° Southeast 369 425 18,200 -1,560 Descending Los Angeles Center
02:41AM 34.4286 -117.6267 119° Southeast 360 414 16,600 -1,620 Descending Los Angeles Center
02:42AM 34.3839 -117.5294 119° Southeast 337 388 15,000 -1,560 Descending Los Angeles Center
02:43AM 34.3422 -117.4372 119° Southeast 332 382 13,500 -1,980 Descending Los Angeles Center
02:44AM 34.3006 -117.3467 119° Southeast 317 365 11,100 -2,340 Descending Los Angeles Center
02:45AM 34.2375 -117.3064 152° Southeast 271 312 8,900 -1,620 Descending Los Angeles Center
02:46AM 34.1656 -117.3017 177° South 255 293 7,900 -1,140 Descending Los Angeles Center
02:47AM 34.1167 -117.3000 178° South 230 265 7,100 -1,680 Descending Southern California TRACON
02:48AM 34.0833 -117.3333 220° Southwest 204 235 5,300 -1,440 Descending Southern California TRACON
02:49AM 34.0500 -117.4000 239° Southwest 182 209 4,100 -1,140 Descending Southern California TRACON
02:50AM 34.0500 -117.4500 270° West 158 182 3,100 -960 Descending Southern California TRACON
02:51AM 34.0500 -117.5000 270° West 138 159 2,200 -840 Descending Southern California TRACON